^^
Your Local Weather - Clay, NY Station Historical Data
Daily Summary for February 20, 2017 Units:  English    Metric   Both
« Previous Day
Next Day »
Daily Weekly Monthly Yearly Custom
  High: Low: Average:
Temperature: 38.1 °F 21.7 °F 31.6 °F
Dew Point: 30.5 °F 15.4 °F 20.6 °F
Humidity: 84% 43% 65%
Wind Speed: 6.0mph 0.0mph 1.9mph
Wind Gust: 8.0mph - -
Wind- - WNW
Pressure: 30.37 in 30.04 in -
Precipitation: 0.00 in    
Historical Graphs
 
 
Tabular Data for February 20, 2017
Time Temperature Dew Point Pressure Wind Wind Speed Wind Gust Humidity Rainfall Rate (Hourly) solar
00:00 36.7 °F 30.5 °F 30.04 in Calm     78% 0.00 in 0 W/m2
00:06 36.4 °F 30.2 °F 30.04 in Calm   3.0 mph 78% 0.00 in 0 W/m2
00:12 36.1 °F 29.9 °F 30.04 in Calm     78% 0.00 in 0 W/m2
00:18 35.7 °F 29.8 °F 30.05 in Calm     79% 0.00 in 0 W/m2
00:24 35.5 °F 29.9 °F 30.05 in Calm     80% 0.00 in 0 W/m2
00:30 35.2 °F 29.6 °F 30.06 in Calm     80% 0.00 in 0 W/m2
00:36 34.9 °F 29.4 °F 30.06 in Calm     80% 0.00 in 0 W/m2
00:42 34.5 °F 29.3 °F 30.06 in Calm     81% 0.00 in 0 W/m2
00:48 34.2 °F 29.0 °F 30.06 in Calm     81% 0.00 in 0 W/m2
00:54 34.0 °F 29.1 °F 30.06 in Calm     82% 0.00 in 0 W/m2
01:00 33.7 °F 28.8 °F 30.06 in Calm     82% 0.00 in 0 W/m2
01:06 33.4 °F 28.8 °F 30.06 in Calm     83% 0.00 in 0 W/m2
01:12 33.4 °F 29.1 °F 30.07 in Calm   1.0 mph 84% 0.00 in 0 W/m2
01:18 33.5 °F 29.2 °F 30.07 in Calm   1.0 mph 84% 0.00 in 0 W/m2
01:24 33.5 °F 29.2 °F 30.07 in Calm     84% 0.00 in 0 W/m2
01:30 33.7 °F 29.4 °F 30.07 in North 1.0 mph 2.0 mph 84% 0.00 in 0 W/m2
01:36 33.9 °F 29.3 °F 30.08 in NNW 1.0 mph 2.0 mph 83% 0.00 in 0 W/m2
01:42 34.1 °F 29.2 °F 30.08 in NNW 1.0 mph 1.0 mph 82% 0.00 in 0 W/m2
01:48 34.2 °F 29.0 °F 30.08 in NNW 1.0 mph 2.0 mph 81% 0.00 in 0 W/m2
01:54 34.3 °F 28.8 °F 30.09 in NNW 1.0 mph 2.0 mph 80% 0.00 in 0 W/m2
02:00 34.3 °F 28.5 °F 30.09 in NNW 1.0 mph 1.0 mph 79% 0.00 in 0 W/m2
02:06 34.0 °F 28.2 °F 30.09 in Calm   1.0 mph 79% 0.00 in 0 W/m2
02:12 33.7 °F 27.9 °F 30.09 in Calm     79% 0.00 in 0 W/m2
02:18 33.6 °F 27.8 °F 30.09 in Calm     79% 0.00 in 0 W/m2
02:24 33.4 °F 27.6 °F 30.09 in Calm     79% 0.00 in 0 W/m2
02:30 33.2 °F 27.4 °F 30.09 in Calm     79% 0.00 in 0 W/m2
02:36 33.0 °F 27.2 °F 30.10 in Calm   2.0 mph 79% 0.00 in 0 W/m2
02:42 32.8 °F 27.0 °F 30.10 in Calm     79% 0.00 in 0 W/m2
02:48 32.6 °F 26.8 °F 30.11 in Calm     79% 0.00 in 0 W/m2
02:54 32.4 °F 26.9 °F 30.11 in Calm     80% 0.00 in 0 W/m2
03:00 32.2 °F 26.7 °F 30.11 in Calm     80% 0.00 in 0 W/m2
03:06 32.1 °F 26.6 °F 30.11 in Calm   2.0 mph 80% 0.00 in 0 W/m2
03:12 32.2 °F 26.7 °F 30.11 in Calm   5.0 mph 80% 0.00 in 0 W/m2
03:18 32.3 °F 26.5 °F 30.11 in NNW 1.0 mph 5.0 mph 79% 0.00 in 0 W/m2
03:24 32.4 °F 26.3 °F 30.12 in NNW 2.0 mph 3.0 mph 78% 0.00 in 0 W/m2
03:30 32.4 °F 26.0 °F 30.12 in NW 2.0 mph 2.0 mph 77% 0.00 in 0 W/m2
03:36 32.3 °F 25.6 °F 30.12 in NNW 2.0 mph 3.0 mph 76% 0.00 in 0 W/m2
03:42 32.3 °F 25.6 °F 30.12 in NNW 1.0 mph 1.0 mph 76% 0.00 in 0 W/m2
03:48 32.1 °F 25.4 °F 30.13 in Calm   1.0 mph 76% 0.00 in 0 W/m2
03:54 32.0 °F 25.3 °F 30.14 in WNW 1.0 mph 1.0 mph 76% 0.00 in 0 W/m2
04:00 31.9 °F 25.2 °F 30.14 in Calm   1.0 mph 76% 0.00 in 0 W/m2
04:06 31.8 °F 25.1 °F 30.14 in Calm   2.0 mph 76% 0.00 in 0 W/m2
04:12 31.7 °F 25.0 °F 30.14 in Calm   1.0 mph 76% 0.00 in 0 W/m2
04:18 31.7 °F 25.3 °F 30.15 in Calm   1.0 mph 77% 0.00 in 0 W/m2
04:24 31.6 °F 25.2 °F 30.15 in Calm     77% 0.00 in 0 W/m2
04:30 31.6 °F 25.2 °F 30.16 in Calm     77% 0.00 in 0 W/m2
04:36 31.6 °F 25.2 °F 30.16 in Calm     77% 0.00 in 0 W/m2
04:42 31.6 °F 25.2 °F 30.17 in WNW 1.0 mph 3.0 mph 77% 0.00 in 0 W/m2
04:48 31.5 °F 25.1 °F 30.17 in NW 1.0 mph 3.0 mph 77% 0.00 in 0 W/m2
04:54 31.4 °F 25.0 °F 30.17 in NW 1.0 mph 2.0 mph 77% 0.00 in 0 W/m2
05:00 31.3 °F 24.9 °F 30.17 in NW 1.0 mph 2.0 mph 77% 0.00 in 0 W/m2
05:06 31.1 °F 24.4 °F 30.18 in NW 1.0 mph 3.0 mph 76% 0.00 in 0 W/m2
05:12 31.0 °F 24.3 °F 30.18 in NW 1.0 mph 3.0 mph 76% 0.00 in 0 W/m2
05:18 30.9 °F 24.2 °F 30.19 in NNW 1.0 mph 3.0 mph 76% 0.00 in 0 W/m2
05:24 30.8 °F 24.1 °F 30.19 in NNW 2.0 mph 4.0 mph 76% 0.00 in 0 W/m2
05:30 30.7 °F 24.0 °F 30.19 in NW 2.0 mph 3.0 mph 76% 0.00 in 0 W/m2
05:36 30.6 °F 23.9 °F 30.20 in WNW 2.0 mph 5.0 mph 76% 0.00 in 0 W/m2
05:42 30.7 °F 24.0 °F 30.20 in North 3.0 mph 4.0 mph 76% 0.00 in 0 W/m2
05:48 30.6 °F 23.9 °F 30.20 in NNW 3.0 mph 4.0 mph 76% 0.00 in 0 W/m2
05:54 30.4 °F 23.7 °F 30.21 in NNW 2.0 mph 3.0 mph 76% 0.00 in 0 W/m2
06:00 30.2 °F 23.5 °F 30.21 in NNW 2.0 mph 2.0 mph 76% 0.00 in 0 W/m2
06:06 30.2 °F 23.5 °F 30.22 in NW 3.0 mph 4.0 mph 76% 0.00 in 0 W/m2
06:12 30.1 °F 23.1 °F 30.22 in NNW 3.0 mph 3.0 mph 75% 0.00 in 0 W/m2
06:18 30.0 °F 23.4 °F 30.22 in NNW 3.0 mph 6.0 mph 76% 0.00 in 0 W/m2
06:24 29.8 °F 23.2 °F 30.22 in NNW 2.0 mph 3.0 mph 76% 0.00 in 0 W/m2
06:30 29.6 °F 23.0 °F 30.22 in NNW 1.0 mph 1.0 mph 76% 0.00 in 0 W/m2
06:36 29.3 °F 22.7 °F 30.23 in Calm   2.0 mph 76% 0.00 in 0 W/m2
06:42 29.3 °F 22.7 °F 30.23 in West 1.0 mph 1.0 mph 76% 0.00 in 0 W/m2
06:48 29.2 °F 22.6 °F 30.23 in NW 1.0 mph 3.0 mph 76% 0.00 in 0 W/m2
06:54 29.2 °F 22.6 °F 30.24 in NNW 2.0 mph 4.0 mph 76% 0.00 in 5 W/m2
07:00 29.3 °F 22.7 °F 30.24 in NNW 4.0 mph 6.0 mph 76% 0.00 in 7 W/m2
07:06 29.4 °F 22.5 °F 30.25 in NNW 4.0 mph 6.0 mph 75% 0.00 in 11 W/m2
07:12 29.2 °F 22.3 °F 30.25 in NNW 3.0 mph 4.0 mph 75% 0.00 in 12 W/m2
07:18 29.1 °F 22.2 °F 30.25 in NNW 2.0 mph 4.0 mph 75% 0.00 in 14 W/m2
07:24 29.0 °F 22.1 °F 30.26 in NNW 2.0 mph 5.0 mph 75% 0.00 in 18 W/m2
07:28 29.1 °F 21.8 °F 30.26 in NNW 3.0 mph 5.0 mph 74% 0.00 in 19 W/m2
07:34 29.1 °F 21.5 °F 30.27 in NW 3.0 mph 4.0 mph 73% 0.00 in 28 W/m2
07:40 29.1 °F 20.9 °F 30.27 in NNW 4.0 mph 7.0 mph 71% 0.00 in 46 W/m2
07:46 29.3 °F 20.7 °F 30.27 in NNW 4.0 mph 7.0 mph 70% 0.00 in 67 W/m2
07:52 29.4 °F 20.8 °F 30.28 in NNW 4.0 mph 7.0 mph 70% 0.00 in 42 W/m2
07:58 29.6 °F 21.0 °F 30.28 in NNW 4.0 mph 7.0 mph 70% 0.00 in 39 W/m2
08:04 29.8 °F 21.5 °F 30.28 in NW 3.0 mph 4.0 mph 71% 0.00 in 137 W/m2
08:10 30.1 °F 21.5 °F 30.28 in NNW 2.0 mph 5.0 mph 70% 0.00 in 178 W/m2
08:16 30.3 °F 21.7 °F 30.29 in NNW 3.0 mph 5.0 mph 70% 0.00 in 155 W/m2
08:22 30.5 °F 21.5 °F 30.29 in NNW 4.0 mph 4.0 mph 69% 0.00 in 146 W/m2
08:28 30.7 °F 21.0 °F 30.30 in North 4.0 mph 5.0 mph 67% 0.00 in 142 W/m2
08:34 31.5 °F 21.8 °F 30.30 in NNW 4.0 mph 7.0 mph 67% 0.00 in 155 W/m2
08:40 31.9 °F 21.5 °F 30.29 in NNW 3.0 mph 7.0 mph 65% 0.00 in 199 W/m2
08:46 31.5 °F 20.7 °F 30.30 in NW 3.0 mph 7.0 mph 64% 0.00 in 272 W/m2
08:52 31.8 °F 20.3 °F 30.30 in NNW 4.0 mph 8.0 mph 62% 0.00 in 295 W/m2
08:58 32.0 °F 20.1 °F 30.30 in NW 4.0 mph 8.0 mph 61% 0.00 in 346 W/m2
09:04 32.1 °F 19.4 °F 30.30 in NW 4.0 mph 8.0 mph 59% 0.00 in 364 W/m2
09:10 32.6 °F 19.8 °F 30.30 in NNE 4.0 mph 5.0 mph 59% 0.00 in 381 W/m2
09:16 32.7 °F 19.5 °F 30.30 in NNW 4.0 mph 7.0 mph 58% 0.00 in 396 W/m2
09:22 33.0 °F 19.8 °F 30.30 in NW 4.0 mph 4.0 mph 58% 0.00 in 411 W/m2
09:28 33.2 °F 19.6 °F 30.31 in NNW 4.0 mph 6.0 mph 57% 0.00 in 429 W/m2
09:34 33.8 °F 20.2 °F 30.30 in WNW 3.0 mph 5.0 mph 57% 0.00 in 441 W/m2
09:40 33.6 °F 19.1 °F 30.31 in North 3.0 mph 5.0 mph 55% 0.00 in 457 W/m2
09:46 33.7 °F 19.2 °F 30.31 in North 4.0 mph 8.0 mph 55% 0.00 in 469 W/m2
09:52 33.6 °F 19.6 °F 30.31 in North 4.0 mph 7.0 mph 56% 0.00 in 482 W/m2
09:58 33.5 °F 19.0 °F 30.31 in NW 4.0 mph 7.0 mph 55% 0.00 in 497 W/m2
10:04 33.7 °F 19.2 °F 30.31 in North 5.0 mph 7.0 mph 55% 0.00 in 506 W/m2
10:10 34.1 °F 19.6 °F 30.31 in North 5.0 mph 5.0 mph 55% 0.00 in 519 W/m2
10:16 34.0 °F 19.5 °F 30.31 in NW 5.0 mph 5.0 mph 55% 0.00 in 529 W/m2
10:22 35.0 °F 20.4 °F 30.31 in NNW 4.0 mph 4.0 mph 55% 0.00 in 541 W/m2
10:24 35.3 °F 19.9 °F 30.31 in NNW 3.0 mph 4.0 mph 53% 0.00 in 547 W/m2
10:30 34.8 °F 18.5 °F 30.31 in NW 3.0 mph 3.0 mph 51% 0.00 in 557 W/m2
10:36 34.4 °F 19.0 °F 30.31 in NNW 5.0 mph 5.0 mph 53% 0.00 in 568 W/m2
10:42 35.2 °F 19.3 °F 30.31 in NNW 4.0 mph 8.0 mph 52% 0.00 in 577 W/m2
10:48 34.8 °F 18.9 °F 30.31 in North 5.0 mph 8.0 mph 52% 0.00 in 585 W/m2
10:56 34.9 °F 19.0 °F 30.31 in North 5.0 mph 5.0 mph 52% 0.00 in 596 W/m2
11:02 34.9 °F 19.0 °F 30.31 in West 5.0 mph 6.0 mph 52% 0.00 in 601 W/m2
11:08 34.2 °F 17.5 °F 30.31 in North 6.0 mph 8.0 mph 50% 0.00 in 612 W/m2
11:14 34.5 °F 18.2 °F 30.31 in North 6.0 mph 8.0 mph 51% 0.00 in 617 W/m2
11:20 34.9 °F 19.0 °F 30.32 in NNW 5.0 mph 5.0 mph 52% 0.00 in 622 W/m2
11:26 35.0 °F 19.6 °F 30.32 in North 5.0 mph 7.0 mph 53% 0.00 in 626 W/m2
11:32 36.3 °F 19.9 °F 30.32 in NW 4.0 mph 5.0 mph 51% 0.00 in 631 W/m2
11:38 35.8 °F 18.0 °F 30.32 in NNW 4.0 mph 5.0 mph 48% 0.00 in 636 W/m2
11:44 36.6 °F 17.7 °F 30.32 in NNW 4.0 mph 4.0 mph 46% 0.00 in 640 W/m2
11:50 35.8 °F 16.5 °F 30.32 in NW 4.0 mph 6.0 mph 45% 0.00 in 642 W/m2
12:02 36.0 °F 16.2 °F 30.32 in North 4.0 mph 6.0 mph 44% 0.00 in 647 W/m2
12:08 36.0 °F 16.7 °F 30.32 in NNW 4.0 mph 6.0 mph 45% 0.00 in 647 W/m2
12:14 35.8 °F 16.0 °F 30.32 in NW 5.0 mph 5.0 mph 44% 0.00 in 649 W/m2
12:20 35.7 °F 15.9 °F 30.32 in NNW 5.0 mph 5.0 mph 44% 0.00 in 647 W/m2
12:26 35.8 °F 16.5 °F 30.32 in North 5.0 mph 6.0 mph 45% 0.00 in 647 W/m2
12:32 35.7 °F 15.4 °F 30.32 in North 6.0 mph 7.0 mph 43% 0.00 in 649 W/m2
12:38 36.7 °F 16.8 °F 30.32 in NW 5.0 mph 7.0 mph 44% 0.00 in 645 W/m2
12:44 37.3 °F 17.9 °F 30.32 in NW 4.0 mph 5.0 mph 45% 0.00 in 643 W/m2
12:50 38.1 °F 18.6 °F 30.32 in North 2.0 mph 2.0 mph 45% 0.00 in 642 W/m2
12:56 36.2 °F 16.4 °F 30.31 in NW 4.0 mph 7.0 mph 44% 0.00 in 636 W/m2
13:02 36.6 °F 16.7 °F 30.31 in NNW 4.0 mph 4.0 mph 44% 0.00 in 633 W/m2
13:08 36.7 °F 18.8 °F 30.31 in NW 4.0 mph 5.0 mph 48% 0.00 in 629 W/m2
13:14 37.4 °F 18.0 °F 30.31 in NNW 3.0 mph 5.0 mph 45% 0.00 in 628 W/m2
13:20 37.6 °F 19.2 °F 30.31 in West 3.0 mph 8.0 mph 47% 0.00 in 621 W/m2
13:26 37.1 °F 17.7 °F 30.31 in NNW 3.0 mph 8.0 mph 45% 0.00 in 615 W/m2
13:32 36.9 °F 17.5 °F 30.31 in NW 3.0 mph 5.0 mph 45% 0.00 in 606 W/m2
13:38 37.0 °F 19.1 °F 30.31 in WNW 4.0 mph 5.0 mph 48% 0.00 in 601 W/m2
13:44 37.0 °F 20.1 °F 30.31 in NW 4.0 mph 4.0 mph 50% 0.00 in 592 W/m2
13:50 36.8 °F 17.9 °F 30.31 in West 4.0 mph 6.0 mph 46% 0.00 in 584 W/m2
13:56 36.6 °F 18.7 °F 30.30 in West 4.0 mph 6.0 mph 48% 0.00 in 575 W/m2
14:02 37.1 °F 18.7 °F 30.30 in WNW 4.0 mph 4.0 mph 47% 0.00 in 568 W/m2
14:08 36.8 °F 19.4 °F 30.30 in WNW 3.0 mph 5.0 mph 49% 0.00 in 557 W/m2
14:14 37.1 °F 18.2 °F 30.30 in NNW 3.0 mph 7.0 mph 46% 0.00 in 547 W/m2
14:20 35.9 °F 17.1 °F 30.30 in North 4.0 mph 6.0 mph 46% 0.00 in 534 W/m2
14:26 35.9 °F 17.6 °F 30.30 in NW 6.0 mph 7.0 mph 47% 0.00 in 526 W/m2
14:32 35.8 °F 17.5 °F 30.31 in North 6.0 mph 7.0 mph 47% 0.00 in 512 W/m2
14:38 35.9 °F 17.1 °F 30.32 in NNW 5.0 mph 7.0 mph 46% 0.00 in 499 W/m2
14:44 35.5 °F 17.7 °F 30.32 in North 5.0 mph 7.0 mph 48% 0.00 in 489 W/m2
14:50 36.5 °F 17.7 °F 30.32 in NNW 5.0 mph 5.0 mph 46% 0.00 in 476 W/m2
14:56 36.7 °F 17.8 °F 30.32 in NNW 3.0 mph 5.0 mph 46% 0.00 in 464 W/m2
15:02 36.3 °F 18.0 °F 30.32 in NNW 4.0 mph 4.0 mph 47% 0.00 in 446 W/m2
15:08 36.2 °F 16.9 °F 30.32 in NW 4.0 mph 4.0 mph 45% 0.00 in 436 W/m2
15:14 36.8 °F 18.4 °F 30.32 in NW 4.0 mph 6.0 mph 47% 0.00 in 422 W/m2
15:20 37.0 °F 18.6 °F 30.33 in NW 3.0 mph 3.0 mph 47% 0.00 in 408 W/m2
15:26 36.5 °F 17.7 °F 30.32 in NW 4.0 mph 4.0 mph 46% 0.00 in 392 W/m2
15:32 37.0 °F 19.1 °F 30.32 in WNW 3.0 mph 4.0 mph 48% 0.00 in 378 W/m2
15:38 36.6 °F 17.7 °F 30.33 in NW 3.0 mph 6.0 mph 46% 0.00 in 362 W/m2
15:46 36.3 °F 18.5 °F 30.33 in NW 3.0 mph 4.0 mph 48% 0.00 in 341 W/m2
15:52 36.6 °F 17.2 °F 30.33 in WNW 3.0 mph 3.0 mph 45% 0.00 in 323 W/m2
15:58 36.4 °F 18.6 °F 30.33 in West 2.0 mph 4.0 mph 48% 0.00 in 309 W/m2
16:04 36.3 °F 17.5 °F 30.33 in WNW 3.0 mph 6.0 mph 46% 0.00 in 290 W/m2
16:10 36.4 °F 18.1 °F 30.33 in WNW 3.0 mph 3.0 mph 47% 0.00 in 272 W/m2
16:16 35.9 °F 16.6 °F 30.33 in West 3.0 mph 6.0 mph 45% 0.00 in 257 W/m2
16:22 35.6 °F 17.3 °F 30.34 in NW 3.0 mph 5.0 mph 47% 0.00 in 241 W/m2
16:28 35.2 °F 17.0 °F 30.34 in WNW 3.0 mph 5.0 mph 47% 0.00 in 28 W/m2
16:34 34.8 °F 16.6 °F 30.34 in WNW 3.0 mph 3.0 mph 47% 0.00 in 26 W/m2
16:40 34.5 °F 17.3 °F 30.34 in WNW 3.0 mph 3.0 mph 49% 0.00 in 33 W/m2
16:46 34.4 °F 17.2 °F 30.34 in WNW 3.0 mph 3.0 mph 49% 0.00 in 39 W/m2
16:52 34.3 °F 16.6 °F 30.34 in WNW 3.0 mph 4.0 mph 48% 0.00 in 33 W/m2
16:58 33.9 °F 16.7 °F 30.34 in NW 3.0 mph 4.0 mph 49% 0.00 in 30 W/m2
17:04 33.8 °F 17.1 °F 30.34 in WNW 2.0 mph 3.0 mph 50% 0.00 in 25 W/m2
17:10 33.7 °F 16.5 °F 30.35 in NW 1.0 mph 1.0 mph 49% 0.00 in 19 W/m2
17:16 33.4 °F 16.7 °F 30.35 in WNW 1.0 mph 4.0 mph 50% 0.00 in 16 W/m2
17:22 33.2 °F 17.0 °F 30.35 in WNW 1.0 mph 2.0 mph 51% 0.00 in 14 W/m2
17:28 32.8 °F 17.1 °F 30.36 in NW 1.0 mph 2.0 mph 52% 0.00 in 11 W/m2
17:34 32.6 °F 16.9 °F 30.36 in NW 1.0 mph 2.0 mph 52% 0.00 in 7 W/m2
17:40 32.3 °F 16.6 °F 30.36 in NW 1.0 mph 1.0 mph 52% 0.00 in 5 W/m2
17:46 31.9 °F 16.7 °F 30.36 in Calm   2.0 mph 53% 0.00 in 0 W/m2
17:52 31.6 °F 16.4 °F 30.36 in Calm     53% 0.00 in 0 W/m2
17:58 31.3 °F 16.1 °F 30.36 in Calm     53% 0.00 in 0 W/m2
18:04 31.1 °F 15.9 °F 30.36 in NW 1.0 mph 2.0 mph 53% 0.00 in 0 W/m2
18:10 30.8 °F 16.1 °F 30.36 in NW 1.0 mph 1.0 mph 54% 0.00 in 0 W/m2
18:16 30.5 °F 15.8 °F 30.36 in Calm   1.0 mph 54% 0.00 in 0 W/m2
18:22 30.2 °F 16.0 °F 30.36 in Calm     55% 0.00 in 0 W/m2
18:28 30.0 °F 15.8 °F 30.36 in Calm     55% 0.00 in 0 W/m2
18:34 29.7 °F 15.9 °F 30.36 in Calm     56% 0.00 in 0 W/m2
18:40 29.5 °F 17.7 °F 30.36 in Calm     61% 0.00 in 0 W/m2
18:46 29.2 °F 18.2 °F 30.36 in Calm     63% 0.00 in 0 W/m2
18:52 28.8 °F 17.0 °F 30.36 in Calm     61% 0.00 in 0 W/m2
18:58 28.4 °F 16.7 °F 30.37 in Calm     61% 0.00 in 0 W/m2
19:06 28.0 °F 16.6 °F 30.37 in Calm     62% 0.00 in 0 W/m2
19:12 27.6 °F 16.6 °F 30.37 in Calm     63% 0.00 in 0 W/m2
19:18 27.4 °F 17.2 °F 30.36 in Calm     65% 0.00 in 0 W/m2
19:26 27.1 °F 17.2 °F 30.35 in Calm     66% 0.00 in 0 W/m2
19:32 26.9 °F 16.7 °F 30.35 in Calm     65% 0.00 in 0 W/m2
19:38 26.5 °F 17.4 °F 30.35 in Calm     68% 0.00 in 0 W/m2
19:48 26.5 °F 17.4 °F 30.36 in Calm     68% 0.00 in 0 W/m2
19:56 26.4 °F 17.3 °F 30.35 in Calm     68% 0.00 in 0 W/m2
20:04 26.0 °F 17.2 °F 30.35 in Calm     69% 0.00 in 0 W/m2
20:10 25.7 °F 17.9 °F 30.35 in Calm     72% 0.00 in 0 W/m2
20:16 25.5 °F 17.4 °F 30.35 in Calm     71% 0.00 in 0 W/m2
20:22 25.3 °F 17.5 °F 30.35 in Calm     72% 0.00 in 0 W/m2
20:28 25.0 °F 16.9 °F 30.35 in Calm     71% 0.00 in 0 W/m2
20:36 24.9 °F 17.1 °F 30.35 in Calm     72% 0.00 in 0 W/m2
20:42 24.8 °F 17.4 °F 30.35 in Calm     73% 0.00 in 0 W/m2
20:48 24.6 °F 17.2 °F 30.35 in Calm     73% 0.00 in 0 W/m2
20:56 24.4 °F 17.0 °F 30.36 in Calm     73% 0.00 in 0 W/m2
21:04 24.5 °F 17.1 °F 30.36 in Calm     73% 0.00 in 0 W/m2
21:10 24.4 °F 17.0 °F 30.35 in Calm     73% 0.00 in 0 W/m2
21:16 24.2 °F 17.1 °F 30.36 in Calm     74% 0.00 in 0 W/m2
21:22 24.0 °F 16.9 °F 30.36 in Calm     74% 0.00 in 0 W/m2
21:28 23.9 °F 17.1 °F 30.35 in Calm     75% 0.00 in 0 W/m2
21:36 23.8 °F 17.0 °F 30.36 in Calm     75% 0.00 in 0 W/m2
21:42 23.7 °F 16.9 °F 30.36 in Calm     75% 0.00 in 0 W/m2
21:48 23.5 °F 16.7 °F 30.36 in Calm     75% 0.00 in 0 W/m2
21:56 23.4 °F 16.6 °F 30.35 in Calm     75% 0.00 in 0 W/m2
22:04 23.2 °F 16.8 °F 30.35 in Calm     76% 0.00 in 0 W/m2
22:10 23.1 °F 16.7 °F 30.35 in Calm     76% 0.00 in 0 W/m2
22:16 23.0 °F 16.6 °F 30.36 in Calm     76% 0.00 in 0 W/m2
22:22 22.8 °F 16.4 °F 30.36 in Calm     76% 0.00 in 0 W/m2
22:28 22.8 °F 16.7 °F 30.36 in Calm     77% 0.00 in 0 W/m2
22:37 22.8 °F 17.0 °F 30.36 in Calm     78% 0.00 in 0 W/m2
22:44 22.6 °F 17.1 °F 30.36 in Calm     79% 0.00 in 0 W/m2
22:50 22.4 °F 16.9 °F 30.36 in Calm     79% 0.00 in 0 W/m2
22:56 22.5 °F 17.0 °F 30.36 in Calm     79% 0.00 in 0 W/m2
23:06 22.4 °F 16.9 °F 30.35 in Calm     79% 0.00 in 0 W/m2
23:12 22.2 °F 16.7 °F 30.35 in Calm     79% 0.00 in 0 W/m2
23:18 22.3 °F 17.1 °F 30.34 in Calm     80% 0.00 in 0 W/m2
23:26 22.1 °F 17.2 °F 30.34 in Calm     81% 0.00 in 0 W/m2
23:32 21.8 °F 16.6 °F 30.34 in Calm     80% 0.00 in 0 W/m2
23:38 21.8 °F 16.6 °F 30.33 in Calm   2.0 mph 80% 0.00 in 0 W/m2
23:52 21.7 °F 16.2 °F 30.34 in Calm     79% 0.00 in 0 W/m2
23:58 21.7 °F 16.5 °F 30.33 in Calm     80% 0.00 in 0 W/m2
Country Meadow, Clay, NY, USA
Compliments of Weather Underground - 2 mb